sensor_id;sensor_type;location;lat;lon;timestamp;pressure;altitude;pressure_sealevel;temperature;humidity
23229;BME280;11783;50.350;6.576;2023-01-08T00:01:48;95250.75;;;7.02;100.00
23229;BME280;11783;50.350;6.576;2023-01-08T00:04:13;95251.28;;;7.04;100.00
23229;BME280;11783;50.350;6.576;2023-01-08T00:06:40;95244.81;;;7.12;100.00
23229;BME280;11783;50.350;6.576;2023-01-08T00:09:05;95242.53;;;7.20;100.00
23229;BME280;11783;50.350;6.576;2023-01-08T00:11:33;95252.69;;;7.28;100.00
23229;BME280;11783;50.350;6.576;2023-01-08T00:13:59;95247.31;;;7.23;100.00
23229;BME280;11783;50.350;6.576;2023-01-08T00:16:24;95235.78;;;7.29;100.00
23229;BME280;11783;50.350;6.576;2023-01-08T00:18:55;95226.16;;;7.23;100.00
23229;BME280;11783;50.350;6.576;2023-01-08T00:21:28;95214.94;;;7.33;100.00
23229;BME280;11783;50.350;6.576;2023-01-08T00:24:01;95228.25;;;7.21;100.00
23229;BME280;11783;50.350;6.576;2023-01-08T00:26:26;95225.06;;;7.19;100.00
23229;BME280;11783;50.350;6.576;2023-01-08T00:28:51;95225.94;;;7.25;100.00
23229;BME280;11783;50.350;6.576;2023-01-08T00:31:25;95210.81;;;7.20;100.00
23229;BME280;11783;50.350;6.576;2023-01-08T00:33:51;95231.53;;;7.28;100.00
23229;BME280;11783;50.350;6.576;2023-01-08T00:36:23;95210.81;;;7.20;100.00
23229;BME280;11783;50.350;6.576;2023-01-08T00:38:51;95213.94;;;7.17;100.00
23229;BME280;11783;50.350;6.576;2023-01-08T00:41:26;95206.16;;;7.27;100.00
23229;BME280;11783;50.350;6.576;2023-01-08T00:43:54;95212.00;;;7.29;100.00
23229;BME280;11783;50.350;6.576;2023-01-08T00:46:25;95204.31;;;7.28;100.00
23229;BME280;11783;50.350;6.576;2023-01-08T00:48:50;95199.28;;;7.26;100.00
23229;BME280;11783;50.350;6.576;2023-01-08T00:51:24;95210.44;;;7.34;100.00
23229;BME280;11783;50.350;6.576;2023-01-08T00:54:01;95209.44;;;7.40;100.00
23229;BME280;11783;50.350;6.576;2023-01-08T00:56:26;95201.81;;;7.43;100.00
23229;BME280;11783;50.350;6.576;2023-01-08T00:58:56;95197.47;;;7.32;100.00
23229;BME280;11783;50.350;6.576;2023-01-08T01:01:21;95202.56;;;7.39;100.00
23229;BME280;11783;50.350;6.576;2023-01-08T01:03:49;95191.63;;;7.52;100.00
23229;BME280;11783;50.350;6.576;2023-01-08T01:06:15;95181.53;;;7.49;100.00
23229;BME280;11783;50.350;6.576;2023-01-08T01:08:43;95191.88;;;7.50;100.00
23229;BME280;11783;50.350;6.576;2023-01-08T01:11:11;95183.13;;;7.50;100.00
23229;BME280;11783;50.350;6.576;2023-01-08T01:13:37;95179.88;;;7.43;100.00
23229;BME280;11783;50.350;6.576;2023-01-08T01:16:03;95193.22;;;7.53;100.00
23229;BME280;11783;50.350;6.576;2023-01-08T01:18:29;95197.91;;;7.46;100.00
23229;BME280;11783;50.350;6.576;2023-01-08T01:20:55;95192.28;;;7.42;100.00
23229;BME280;11783;50.350;6.576;2023-01-08T01:23:22;95181.97;;;7.41;100.00
23229;BME280;11783;50.350;6.576;2023-01-08T01:25:48;95194.47;;;7.45;100.00
23229;BME280;11783;50.350;6.576;2023-01-08T01:28:13;95180.38;;;7.40;100.00
23229;BME280;11783;50.350;6.576;2023-01-08T01:30:40;95176.81;;;7.51;100.00
23229;BME280;11783;50.350;6.576;2023-01-08T01:33:05;95184.78;;;7.56;100.00
23229;BME280;11783;50.350;6.576;2023-01-08T01:35:40;95181.72;;;7.42;100.00
23229;BME280;11783;50.350;6.576;2023-01-08T01:38:08;95187.97;;;7.58;100.00
23229;BME280;11783;50.350;6.576;2023-01-08T01:40:34;95176.75;;;7.46;100.00
23229;BME280;11783;50.350;6.576;2023-01-08T01:43:01;95181.00;;;7.47;100.00
23229;BME280;11783;50.350;6.576;2023-01-08T01:45:27;95178.09;;;7.48;100.00
23229;BME280;11783;50.350;6.576;2023-01-08T01:47:57;95175.25;;;7.55;100.00
23229;BME280;11783;50.350;6.576;2023-01-08T01:50:29;95180.66;;;7.43;100.00
23229;BME280;11783;50.350;6.576;2023-01-08T01:53:07;95176.38;;;7.37;100.00
23229;BME280;11783;50.350;6.576;2023-01-08T01:55:39;95184.31;;;7.37;100.00
23229;BME280;11783;50.350;6.576;2023-01-08T01:58:17;95180.44;;;7.45;100.00
23229;BME280;11783;50.350;6.576;2023-01-08T02:00:48;95186.97;;;7.37;100.00
23229;BME280;11783;50.350;6.576;2023-01-08T02:03:20;95177.72;;;7.40;100.00
23229;BME280;11783;50.350;6.576;2023-01-08T02:05:53;95180.66;;;7.43;100.00
23229;BME280;11783;50.350;6.576;2023-01-08T02:11:15;95178.41;;;7.52;100.00
23229;BME280;11783;50.350;6.576;2023-01-08T02:13:59;95180.78;;;7.53;100.00
23229;BME280;11783;50.350;6.576;2023-01-08T02:16:45;95182.03;;;7.46;100.00
23229;BME280;11783;50.350;6.576;2023-01-08T02:19:21;95175.72;;;7.47;100.00
23229;BME280;11783;50.350;6.576;2023-01-08T02:24:34;95158.63;;;7.33;100.00
23229;BME280;11783;50.350;6.576;2023-01-08T02:27:03;95150.16;;;7.31;100.00
23229;BME280;11783;50.350;6.576;2023-01-08T02:29:31;95147.50;;;7.31;100.00
23229;BME280;11783;50.350;6.576;2023-01-08T02:32:00;95130.56;;;7.26;100.00
23229;BME280;11783;50.350;6.576;2023-01-08T02:34:26;95127.59;;;7.23;100.00
23229;BME280;11783;50.350;6.576;2023-01-08T02:36:58;95127.34;;;7.24;100.00
23229;BME280;11783;50.350;6.576;2023-01-08T02:45:06;95122.72;;;7.37;100.00
23229;BME280;11783;50.350;6.576;2023-01-08T02:47:41;95111.03;;;7.27;100.00
23229;BME280;11783;50.350;6.576;2023-01-08T02:50:31;95114.47;;;7.28;100.00
23229;BME280;11783;50.350;6.576;2023-01-08T02:53:24;95127.84;;;7.21;100.00
23229;BME280;11783;50.350;6.576;2023-01-08T02:55:57;95125.47;;;7.20;100.00
23229;BME280;11783;50.350;6.576;2023-01-08T02:58:27;95118.81;;;7.17;100.00
23229;BME280;11783;50.350;6.576;2023-01-08T03:01:00;95116.69;;;7.14;100.00
23229;BME280;11783;50.350;6.576;2023-01-08T03:03:30;95107.16;;;7.13;100.00
23229;BME280;11783;50.350;6.576;2023-01-08T03:06:01;95094.53;;;7.20;100.00
23229;BME280;11783;50.350;6.576;2023-01-08T03:08:28;95106.31;;;7.08;100.00
23229;BME280;11783;50.350;6.576;2023-01-08T03:10:58;95102.31;;;7.05;100.00
23229;BME280;11783;50.350;6.576;2023-01-08T03:17:03;95094.63;;;7.04;100.00
23229;BME280;11783;50.350;6.576;2023-01-08T03:19:39;95098.06;;;7.04;100.00
23229;BME280;11783;50.350;6.576;2023-01-08T03:22:12;95099.66;;;7.05;100.00
23229;BME280;11783;50.350;6.576;2023-01-08T03:24:40;95107.91;;;7.09;100.00
23229;BME280;11783;50.350;6.576;2023-01-08T03:27:15;95109.75;;;7.08;100.00
23229;BME280;11783;50.350;6.576;2023-01-08T03:29:42;95114.00;;;7.09;100.00
23229;BME280;11783;50.350;6.576;2023-01-08T03:32:11;95106.78;;;7.05;100.00
23229;BME280;11783;50.350;6.576;2023-01-08T03:34:41;95111.97;;;6.94;100.00
23229;BME280;11783;50.350;6.576;2023-01-08T03:37:09;95114.13;;;6.97;100.00
23229;BME280;11783;50.350;6.576;2023-01-08T03:40:08;95115.38;;;6.90;100.00
23229;BME280;11783;50.350;6.576;2023-01-08T03:42:34;95119.09;;;6.94;100.00
23229;BME280;11783;50.350;6.576;2023-01-08T03:45:03;95111.72;;;6.96;100.00
23229;BME280;11783;50.350;6.576;2023-01-08T03:47:30;95107.00;;;6.98;100.00
23229;BME280;11783;50.350;6.576;2023-01-08T03:50:04;95102.72;;;6.92;100.00
23229;BME280;11783;50.350;6.576;2023-01-08T03:52:34;95097.47;;;6.97;100.00
23229;BME280;11783;50.350;6.576;2023-01-08T03:55:05;95096.88;;;6.90;100.00
23229;BME280;11783;50.350;6.576;2023-01-08T03:57:31;95096.38;;;6.93;100.00
23229;BME280;11783;50.350;6.576;2023-01-08T03:59:59;95082.19;;;6.99;100.00
23229;BME280;11783;50.350;6.576;2023-01-08T04:02:27;95083.22;;;6.98;100.00
23229;BME280;11783;50.350;6.576;2023-01-08T04:04:52;95090.09;;;6.99;100.00
23229;BME280;11783;50.350;6.576;2023-01-08T04:07:22;95070.00;;;6.98;100.00
23229;BME280;11783;50.350;6.576;2023-01-08T04:09:50;95075.84;;;7.00;100.00
23229;BME280;11783;50.350;6.576;2023-01-08T04:12:18;95081.09;;;6.95;100.00
23229;BME280;11783;50.350;6.576;2023-01-08T04:14:46;95097.72;;;6.95;100.00
23229;BME280;11783;50.350;6.576;2023-01-08T04:17:12;95080.97;;;6.85;100.00
23229;BME280;11783;50.350;6.576;2023-01-08T04:19:40;95073.78;;;6.80;100.00
23229;BME280;11783;50.350;6.576;2023-01-08T04:22:08;95081.50;;;6.87;100.00
23229;BME280;11783;50.350;6.576;2023-01-08T04:24:34;95086.50;;;6.83;100.00
23229;BME280;11783;50.350;6.576;2023-01-08T04:26:59;95075.19;;;6.88;100.00
23229;BME280;11783;50.350;6.576;2023-01-08T04:29:30;95075.06;;;6.78;100.00
23229;BME280;11783;50.350;6.576;2023-01-08T04:31:55;95066.66;;;6.81;100.00
23229;BME280;11783;50.350;6.576;2023-01-08T04:34:29;95068.63;;;6.90;100.00
23229;BME280;11783;50.350;6.576;2023-01-08T04:36:58;95061.00;;;6.94;100.00
23229;BME280;11783;50.350;6.576;2023-01-08T04:39:25;95060.44;;;6.92;100.00
23229;BME280;11783;50.350;6.576;2023-01-08T04:42:00;95069.41;;;6.91;100.00
23229;BME280;11783;50.350;6.576;2023-01-08T04:44:25;95066.06;;;7.01;100.00
23229;BME280;11783;50.350;6.576;2023-01-08T04:46:50;95062.03;;;6.93;100.00
23229;BME280;11783;50.350;6.576;2023-01-08T04:49:18;95070.25;;;6.96;100.00
23229;BME280;11783;50.350;6.576;2023-01-08T04:51:46;95056.84;;;7.03;100.00
23229;BME280;11783;50.350;6.576;2023-01-08T04:54:14;95054.16;;;6.98;100.00
23229;BME280;11783;50.350;6.576;2023-01-08T04:56:43;95045.69;;;6.96;100.00
23229;BME280;11783;50.350;6.576;2023-01-08T04:59:09;95039.88;;;6.94;100.00
23229;BME280;11783;50.350;6.576;2023-01-08T05:01:34;95039.56;;;6.90;100.00
23229;BME280;11783;50.350;6.576;2023-01-08T05:04:03;95034.72;;;6.82;100.00
23229;BME280;11783;50.350;6.576;2023-01-08T05:06:30;95029.56;;;6.92;100.00
23229;BME280;11783;50.350;6.576;2023-01-08T05:08:59;95028.25;;;6.95;100.00
23229;BME280;11783;50.350;6.576;2023-01-08T05:11:29;95031.72;;;7.01;100.00
23229;BME280;11783;50.350;6.576;2023-01-08T05:13:57;95023.22;;;6.93;100.00
23229;BME280;11783;50.350;6.576;2023-01-08T05:16:25;95022.34;;;6.88;100.00
23229;BME280;11783;50.350;6.576;2023-01-08T05:18:51;95022.06;;;6.84;100.00
23229;BME280;11783;50.350;6.576;2023-01-08T05:21:19;95018.91;;;6.87;100.00
23229;BME280;11783;50.350;6.576;2023-01-08T05:23:47;95017.91;;;6.88;100.00
23229;BME280;11783;50.350;6.576;2023-01-08T05:26:18;95026.03;;;6.87;100.00
23229;BME280;11783;50.350;6.576;2023-01-08T05:28:44;95020.03;;;6.91;100.00
23229;BME280;11783;50.350;6.576;2023-01-08T05:31:13;95015.72;;;6.85;100.00
23229;BME280;11783;50.350;6.576;2023-01-08T05:33:39;95024.53;;;6.91;100.00
23229;BME280;11783;50.350;6.576;2023-01-08T05:36:09;95025.88;;;6.93;100.00
23229;BME280;11783;50.350;6.576;2023-01-08T05:38:40;95026.44;;;7.01;100.00
23229;BME280;11783;50.350;6.576;2023-01-08T05:41:09;95028.34;;;7.05;100.00
23229;BME280;11783;50.350;6.576;2023-01-08T05:43:37;95033.88;;;7.04;100.00
23229;BME280;11783;50.350;6.576;2023-01-08T05:46:03;95021.47;;;7.04;100.00
23229;BME280;11783;50.350;6.576;2023-01-08T05:48:30;95018.56;;;7.06;100.00
23229;BME280;11783;50.350;6.576;2023-01-08T05:50:59;95027.59;;;7.10;100.00
23229;BME280;11783;50.350;6.576;2023-01-08T05:53:28;95023.53;;;6.97;100.00
23229;BME280;11783;50.350;6.576;2023-01-08T05:56:04;95014.34;;;7.05;100.00
23229;BME280;11783;50.350;6.576;2023-01-08T05:58:32;95022.00;;;7.06;100.00
23229;BME280;11783;50.350;6.576;2023-01-08T06:01:12;95016.00;;;7.11;100.00
23229;BME280;11783;50.350;6.576;2023-01-08T06:03:40;95020.41;;;7.05;100.00
23229;BME280;11783;50.350;6.576;2023-01-08T06:06:15;95020.66;;;7.04;100.00
23229;BME280;11783;50.350;6.576;2023-01-08T06:08:43;95021.03;;;7.12;100.00
23229;BME280;11783;50.350;6.576;2023-01-08T06:11:09;95019.97;;;7.13;100.00
23229;BME280;11783;50.350;6.576;2023-01-08T06:13:36;95014.44;;;7.15;100.00
23229;BME280;11783;50.350;6.576;2023-01-08T06:16:06;95022.25;;;7.05;100.00
23229;BME280;11783;50.350;6.576;2023-01-08T06:18:35;95028.59;;;7.04;100.00
23229;BME280;11783;50.350;6.576;2023-01-08T06:21:01;95023.56;;;7.02;100.00
23229;BME280;11783;50.350;6.576;2023-01-08T06:23:30;95017.19;;;6.98;100.00
23229;BME280;11783;50.350;6.576;2023-01-08T06:26:00;95009.84;;;7.05;100.00
23229;BME280;11783;50.350;6.576;2023-01-08T06:28:29;95017.59;;;7.12;100.00
23229;BME280;11783;50.350;6.576;2023-01-08T06:31:02;95010.16;;;7.09;100.00
23229;BME280;11783;50.350;6.576;2023-01-08T06:33:28;95022.22;;;6.99;100.00
23229;BME280;11783;50.350;6.576;2023-01-08T06:35:53;95018.78;;;6.99;100.00
23229;BME280;11783;50.350;6.576;2023-01-08T06:38:21;95028.81;;;6.97;100.00
23229;BME280;11783;50.350;6.576;2023-01-08T06:40:47;95030.78;;;6.85;100.00
23229;BME280;11783;50.350;6.576;2023-01-08T06:43:12;95041.25;;;6.75;100.00
23229;BME280;11783;50.350;6.576;2023-01-08T06:45:37;95038.66;;;6.80;100.00
23229;BME280;11783;50.350;6.576;2023-01-08T06:48:06;95043.25;;;6.89;100.00
23229;BME280;11783;50.350;6.576;2023-01-08T06:50:32;95030.34;;;6.93;100.00
23229;BME280;11783;50.350;6.576;2023-01-08T06:52:59;95039.25;;;6.87;100.00
23229;BME280;11783;50.350;6.576;2023-01-08T06:55:29;95044.69;;;6.75;100.00
23229;BME280;11783;50.350;6.576;2023-01-08T06:57:57;95030.22;;;6.83;100.00
23229;BME280;11783;50.350;6.576;2023-01-08T07:00:24;95043.69;;;6.81;100.00
23229;BME280;11783;50.350;6.576;2023-01-08T07:02:54;95034.38;;;6.74;100.00
23229;BME280;11783;50.350;6.576;2023-01-08T07:05:19;95047.94;;;6.60;100.00
23229;BME280;11783;50.350;6.576;2023-01-08T07:07:45;95042.47;;;6.67;100.00
23229;BME280;11783;50.350;6.576;2023-01-08T07:10:10;95043.22;;;6.62;100.00
23229;BME280;11783;50.350;6.576;2023-01-08T07:12:36;95044.97;;;6.52;100.00
23229;BME280;11783;50.350;6.576;2023-01-08T07:15:02;95033.91;;;6.55;100.00
23229;BME280;11783;50.350;6.576;2023-01-08T07:17:28;95055.19;;;6.48;100.00
23229;BME280;11783;50.350;6.576;2023-01-08T07:19:56;95043.56;;;6.49;100.00
23229;BME280;11783;50.350;6.576;2023-01-08T07:22:27;95028.06;;;6.53;100.00
23229;BME280;11783;50.350;6.576;2023-01-08T07:24:52;95023.63;;;6.58;100.00
23229;BME280;11783;50.350;6.576;2023-01-08T07:27:17;95031.97;;;6.50;100.00
23229;BME280;11783;50.350;6.576;2023-01-08T07:29:43;95044.16;;;6.51;100.00
23229;BME280;11783;50.350;6.576;2023-01-08T07:32:08;95042.66;;;6.60;100.00
23229;BME280;11783;50.350;6.576;2023-01-08T07:34:36;95046.84;;;6.56;100.00
23229;BME280;11783;50.350;6.576;2023-01-08T07:37:02;95032.72;;;6.46;100.00
23229;BME280;11783;50.350;6.576;2023-01-08T07:39:27;95034.56;;;6.45;100.00
23229;BME280;11783;50.350;6.576;2023-01-08T07:41:53;95039.78;;;6.40;100.00
23229;BME280;11783;50.350;6.576;2023-01-08T07:44:18;95040.59;;;6.41;100.00
23229;BME280;11783;50.350;6.576;2023-01-08T07:46:46;95043.41;;;6.34;100.00
23229;BME280;11783;50.350;6.576;2023-01-08T07:49:20;95042.28;;;6.30;100.00
23229;BME280;11783;50.350;6.576;2023-01-08T07:51:47;95054.63;;;6.46;100.00
23229;BME280;11783;50.350;6.576;2023-01-08T07:54:18;95043.97;;;6.36;100.00
23229;BME280;11783;50.350;6.576;2023-01-08T07:56:43;95043.53;;;6.44;100.00
23229;BME280;11783;50.350;6.576;2023-01-08T07:59:08;95052.94;;;6.35;100.00
23229;BME280;11783;50.350;6.576;2023-01-08T08:01:37;95053.97;;;6.34;100.00
23229;BME280;11783;50.350;6.576;2023-01-08T08:04:07;95034.91;;;6.32;100.00
23229;BME280;11783;50.350;6.576;2023-01-08T08:06:32;95039.78;;;6.40;100.00
23229;BME280;11783;50.350;6.576;2023-01-08T08:08:58;95039.19;;;6.33;100.00
23229;BME280;11783;50.350;6.576;2023-01-08T08:11:24;95034.81;;;6.44;100.00
23229;BME280;11783;50.350;6.576;2023-01-08T08:13:49;95032.56;;;6.52;100.00
23229;BME280;11783;50.350;6.576;2023-01-08T08:16:14;95041.38;;;6.41;100.00
23229;BME280;11783;50.350;6.576;2023-01-08T08:18:42;95039.25;;;6.38;100.00
23229;BME280;11783;50.350;6.576;2023-01-08T08:21:10;95031.72;;;6.30;100.00
23229;BME280;11783;50.350;6.576;2023-01-08T08:23:36;95047.31;;;6.31;100.00
23229;BME280;11783;50.350;6.576;2023-01-08T08:26:02;95036.75;;;6.31;100.00
23229;BME280;11783;50.350;6.576;2023-01-08T08:28:28;95036.91;;;6.20;100.00
23229;BME280;11783;50.350;6.576;2023-01-08T08:30:53;95042.97;;;6.20;100.00
23229;BME280;11783;50.350;6.576;2023-01-08T08:33:19;95027.34;;;6.14;100.00
23229;BME280;11783;50.350;6.576;2023-01-08T08:35:49;95028.13;;;6.14;100.00
23229;BME280;11783;50.350;6.576;2023-01-08T08:38:15;95026.28;;;6.15;100.00
23229;BME280;11783;50.350;6.576;2023-01-08T08:40:42;95032.91;;;6.17;100.00
23229;BME280;11783;50.350;6.576;2023-01-08T08:43:10;95030.09;;;6.24;100.00
23229;BME280;11783;50.350;6.576;2023-01-08T08:45:36;95024.25;;;6.22;100.00
23229;BME280;11783;50.350;6.576;2023-01-08T08:48:07;95026.66;;;6.23;100.00
23229;BME280;11783;50.350;6.576;2023-01-08T08:50:35;95013.50;;;6.28;100.00
23229;BME280;11783;50.350;6.576;2023-01-08T08:53:05;95014.25;;;6.24;100.00
23229;BME280;11783;50.350;6.576;2023-01-08T08:55:31;95009.72;;;6.19;100.00
23229;BME280;11783;50.350;6.576;2023-01-08T08:58:08;95009.03;;;6.29;100.00
23229;BME280;11783;50.350;6.576;2023-01-08T09:00:42;95006.03;;;6.20;100.00
23229;BME280;11783;50.350;6.576;2023-01-08T09:03:14;95004.44;;;6.19;100.00
23229;BME280;11783;50.350;6.576;2023-01-08T09:05:40;95005.78;;;6.22;100.00
23229;BME280;11783;50.350;6.576;2023-01-08T09:08:09;94997.88;;;6.22;100.00
23229;BME280;11783;50.350;6.576;2023-01-08T09:10:43;95000.16;;;6.35;100.00
23229;BME280;11783;50.350;6.576;2023-01-08T09:13:09;95001.13;;;6.51;100.00
23229;BME280;11783;50.350;6.576;2023-01-08T09:15:36;94993.75;;;6.53;100.00
23229;BME280;11783;50.350;6.576;2023-01-08T09:18:04;94994.09;;;6.61;100.00
23229;BME280;11783;50.350;6.576;2023-01-08T09:20:30;94992.81;;;6.64;100.00
23229;BME280;11783;50.350;6.576;2023-01-08T09:22:59;94992.47;;;6.55;100.00
23229;BME280;11783;50.350;6.576;2023-01-08T09:25:25;95004.25;;;6.48;100.00
23229;BME280;11783;50.350;6.576;2023-01-08T09:28:01;95001.78;;;6.41;100.00
23229;BME280;11783;50.350;6.576;2023-01-08T09:30:28;94994.63;;;6.36;100.00
23229;BME280;11783;50.350;6.576;2023-01-08T09:33:00;94983.31;;;6.41;100.00
23229;BME280;11783;50.350;6.576;2023-01-08T09:35:26;94989.16;;;6.43;100.00
23229;BME280;11783;50.350;6.576;2023-01-08T09:37:55;94996.66;;;6.51;100.00
23229;BME280;11783;50.350;6.576;2023-01-08T09:40:21;95001.47;;;6.59;100.00
23229;BME280;11783;50.350;6.576;2023-01-08T09:42:53;94991.16;;;6.58;100.00
23229;BME280;11783;50.350;6.576;2023-01-08T09:45:26;94997.28;;;6.63;100.00
23229;BME280;11783;50.350;6.576;2023-01-08T09:47:52;94983.41;;;6.73;100.00
23229;BME280;11783;50.350;6.576;2023-01-08T09:50:19;94992.00;;;6.63;100.00
23229;BME280;11783;50.350;6.576;2023-01-08T09:52:45;94977.13;;;6.79;100.00
23229;BME280;11783;50.350;6.576;2023-01-08T09:55:15;94983.41;;;6.73;100.00
23229;BME280;11783;50.350;6.576;2023-01-08T09:57:42;94980.56;;;6.80;100.00
23229;BME280;11783;50.350;6.576;2023-01-08T10:00:12;94973.28;;;6.65;100.00
23229;BME280;11783;50.350;6.576;2023-01-08T10:02:39;94969.59;;;6.66;100.00
23229;BME280;11783;50.350;6.576;2023-01-08T10:05:11;94972.97;;;6.61;100.00
23229;BME280;11783;50.350;6.576;2023-01-08T10:07:38;94971.94;;;6.62;100.00
23229;BME280;11783;50.350;6.576;2023-01-08T10:10:03;94965.53;;;6.53;100.00
23229;BME280;11783;50.350;6.576;2023-01-08T10:12:32;94961.09;;;6.59;100.00
23229;BME280;11783;50.350;6.576;2023-01-08T10:15:03;94956.94;;;6.68;100.00
23229;BME280;11783;50.350;6.576;2023-01-08T10:17:38;94941.41;;;6.72;100.00
23229;BME280;11783;50.350;6.576;2023-01-08T10:20:15;94949.41;;;6.82;100.00
23229;BME280;11783;50.350;6.576;2023-01-08T10:22:43;94941.72;;;6.75;100.00
23229;BME280;11783;50.350;6.576;2023-01-08T10:25:15;94934.75;;;6.69;100.00
23229;BME280;11783;50.350;6.576;2023-01-08T10:27:47;94945.59;;;6.67;100.00
23229;BME280;11783;50.350;6.576;2023-01-08T10:30:20;94937.75;;;6.78;100.00
23229;BME280;11783;50.350;6.576;2023-01-08T10:32:54;94944.78;;;6.67;100.00
23229;BME280;11783;50.350;6.576;2023-01-08T10:35:30;94938.81;;;6.77;100.00
23229;BME280;11783;50.350;6.576;2023-01-08T10:37:57;94944.00;;;6.66;100.00
23229;BME280;11783;50.350;6.576;2023-01-08T10:43:25;94931.19;;;6.80;100.00
23229;BME280;11783;50.350;6.576;2023-01-08T10:45:57;94942.66;;;6.64;100.00
23229;BME280;11783;50.350;6.576;2023-01-08T10:48:37;94914.91;;;6.61;100.00
23229;BME280;11783;50.350;6.576;2023-01-08T10:51:21;94919.09;;;6.57;100.00
23229;BME280;11783;50.350;6.576;2023-01-08T10:53:51;94913.66;;;6.69;100.00
23229;BME280;11783;50.350;6.576;2023-01-08T10:56:22;94907.38;;;6.75;100.00
23229;BME280;11783;50.350;6.576;2023-01-08T10:58:48;94901.31;;;6.75;100.00
23229;BME280;11783;50.350;6.576;2023-01-08T11:01:23;94888.06;;;6.70;100.00
23229;BME280;11783;50.350;6.576;2023-01-08T11:03:53;94895.78;;;6.76;100.00
23229;BME280;11783;50.350;6.576;2023-01-08T11:06:25;94904.50;;;6.77;100.00
23229;BME280;11783;50.350;6.576;2023-01-08T11:08:53;94913.75;;;6.79;100.00
23229;BME280;11783;50.350;6.576;2023-01-08T11:11:22;94902.69;;;6.82;100.00
23229;BME280;11783;50.350;6.576;2023-01-08T11:13:55;94910.09;;;6.85;100.00
23229;BME280;11783;50.350;6.576;2023-01-08T11:16:29;94895.09;;;6.91;100.00
23229;BME280;11783;50.350;6.576;2023-01-08T11:18:55;94896.59;;;6.82;100.00
23229;BME280;11783;50.350;6.576;2023-01-08T11:21:23;94883.25;;;6.93;100.00
23229;BME280;11783;50.350;6.576;2023-01-08T11:24:10;94890.81;;;6.85;100.00
23229;BME280;11783;50.350;6.576;2023-01-08T11:26:42;94894.72;;;6.77;100.00
23229;BME280;11783;50.350;6.576;2023-01-08T11:29:17;94893.97;;;6.82;100.00
23229;BME280;11783;50.350;6.576;2023-01-08T11:31:56;94887.09;;;6.81;100.00
23229;BME280;11783;50.350;6.576;2023-01-08T11:34:38;94888.97;;;6.85;100.00
23229;BME280;11783;50.350;6.576;2023-01-08T11:37:19;94870.03;;;6.93;100.00
23229;BME280;11783;50.350;6.576;2023-01-08T11:39:45;94884.47;;;6.86;100.00
23229;BME280;11783;50.350;6.576;2023-01-08T12:05:21;94853.34;;;6.88;100.00
23229;BME280;11783;50.350;6.576;2023-01-08T12:08:04;94852.72;;;6.76;100.00
23229;BME280;11783;50.350;6.576;2023-01-08T12:16:26;94836.94;;;6.86;100.00
23229;BME280;11783;50.350;6.576;2023-01-08T12:19:16;94832.00;;;6.94;100.00
23229;BME280;11783;50.350;6.576;2023-01-08T12:22:09;94824.91;;;7.00;100.00
23229;BME280;11783;50.350;6.576;2023-01-08T12:24:58;94825.25;;;7.09;100.00
23229;BME280;11783;50.350;6.576;2023-01-08T12:33:07;94820.22;;;7.12;100.00
23229;BME280;11783;50.350;6.576;2023-01-08T12:35:49;94821.88;;;7.23;100.00
23229;BME280;11783;50.350;6.576;2023-01-08T12:38:24;94813.22;;;7.38;100.00
23229;BME280;11783;50.350;6.576;2023-01-08T12:40:57;94826.50;;;7.48;100.00
23229;BME280;11783;50.350;6.576;2023-01-08T12:43:30;94818.53;;;7.43;100.00
23229;BME280;11783;50.350;6.576;2023-01-08T12:45:58;94808.78;;;7.44;100.00
23229;BME280;11783;50.350;6.576;2023-01-08T12:48:31;94803.50;;;7.44;100.00
23229;BME280;11783;50.350;6.576;2023-01-08T12:51:06;94808.19;;;7.32;100.00
23229;BME280;11783;50.350;6.576;2023-01-08T12:53:41;94804.97;;;7.24;100.00
23229;BME280;11783;50.350;6.576;2023-01-08T13:04:00;94813.81;;;7.03;100.00
23229;BME280;11783;50.350;6.576;2023-01-08T13:06:28;94802.97;;;6.99;100.00
23229;BME280;11783;50.350;6.576;2023-01-08T13:08:55;94795.84;;;7.00;100.00
23229;BME280;11783;50.350;6.576;2023-01-08T13:11:35;94798.19;;;6.91;100.00
23229;BME280;11783;50.350;6.576;2023-01-08T13:16:27;94780.22;;;6.88;100.00
23229;BME280;11783;50.350;6.576;2023-01-08T13:18:55;94782.00;;;6.83;100.00
23229;BME280;11783;50.350;6.576;2023-01-08T13:21:54;94774.94;;;6.88;100.00
23229;BME280;11783;50.350;6.576;2023-01-08T13:24:35;94781.00;;;6.89;100.00
23229;BME280;11783;50.350;6.576;2023-01-08T13:29:44;94791.50;;;6.84;100.00
23229;BME280;11783;50.350;6.576;2023-01-08T13:37:39;94769.31;;;6.80;100.00
23229;BME280;11783;50.350;6.576;2023-01-08T13:43:23;94756.38;;;6.83;100.00
23229;BME280;11783;50.350;6.576;2023-01-08T13:46:04;94750.28;;;6.73;100.00
23229;BME280;11783;50.350;6.576;2023-01-08T13:48:36;94751.84;;;6.74;100.00
23229;BME280;11783;50.350;6.576;2023-01-08T13:51:03;94756.09;;;6.75;100.00
23229;BME280;11783;50.350;6.576;2023-01-08T13:53:29;94751.75;;;6.58;100.00
23229;BME280;11783;50.350;6.576;2023-01-08T13:56:05;94748.03;;;6.54;100.00
23229;BME280;11783;50.350;6.576;2023-01-08T13:58:39;94752.28;;;6.60;100.00
23229;BME280;11783;50.350;6.576;2023-01-08T14:01:09;94739.91;;;6.66;100.00
23229;BME280;11783;50.350;6.576;2023-01-08T14:03:37;94740.50;;;6.73;100.00
23229;BME280;11783;50.350;6.576;2023-01-08T14:08:36;94741.13;;;6.90;100.00
23229;BME280;11783;50.350;6.576;2023-01-08T14:11:15;94733.16;;;6.85;100.00
23229;BME280;11783;50.350;6.576;2023-01-08T14:13:41;94735.53;;;6.87;100.00
23229;BME280;11783;50.350;6.576;2023-01-08T14:16:11;94729.72;;;6.80;100.00
23229;BME280;11783;50.350;6.576;2023-01-08T14:18:43;94721.78;;;6.80;100.00
23229;BME280;11783;50.350;6.576;2023-01-08T14:21:10;94708.03;;;6.73;100.00
23229;BME280;11783;50.350;6.576;2023-01-08T14:23:44;94704.78;;;6.65;100.00
23229;BME280;11783;50.350;6.576;2023-01-08T14:28:52;94709.03;;;6.66;100.00
23229;BME280;11783;50.350;6.576;2023-01-08T14:31:23;94705.91;;;6.75;100.00
23229;BME280;11783;50.350;6.576;2023-01-08T14:33:49;94700.13;;;6.78;100.00